KIML

Details ICAO KIML
Name IMPERIAL MUNI
Region United States
Timezone America/Denver (UTC-7.0)
Plans Departing 0
Arriving 0
Stats Elevation 3,275 ft / 998 m (AMSL)
Location 40.510812° -101.619956°
Runways 2
Magnetic Variation 6.367° E
Sunrise 2017-12-15 14:04:22 UTC / 2017-12-15 07:04:22 Local
Sunset 2017-12-15 23:21:57 UTC / 2017-12-15 16:21:57 Local
Advertisement - Login to hide

Runways

ID Width Length Bearing (true) Bearing (mag) Surface Threshold Offset Overrun Length
03 243 ft / 74 m 3,057 ft / 932 m 45.43° 39.06° Dirt 0 ft / 0 m 0 ft / 0 m
13 98 ft / 30 m 5,026 ft / 1,532 m 143.80° 137.43° Concrete 0 ft / 0 m 0 ft / 0 m
21 243 ft / 74 m 3,057 ft / 932 m 225.44° 219.07° Dirt 0 ft / 0 m 0 ft / 0 m
31 98 ft / 30 m 5,026 ft / 1,532 m 323.80° 317.43° Concrete 0 ft / 0 m 0 ft / 0 m

Map

Weather


0- 5 10 15 20 25 30 35+ Temperature / ° C

Clouds and Precipitation
Forecast for 2017-12-16 00:00 UTC. Updated an hour ago

Ground ~20,000 ft ~40,000 ft Winds

METAR

KIML 152153Z AUTO 27010KT 10SM CLR 14/M12 A2985 RMK AO2 SLP123 T01441117

TAF

Not found

Frequencies

Recorded 124.17 MHz ASOS
Unicom 122.80 MHz CTAF/UNICOM
Warning: Do not use this data for real-world aviation or navigation. No guarantee of current accuracy is given.